Time;durP1;ratioP1;P1;durP2;ratioP2;P2;SDS_P1;SDS_P2;PMS_P1;PMS_P2;Temp;Humidity;BMP_temperature;BMP_pressure;BME280_temperature;BME280_humidity;BME280_pressure;Samples;Min_cycle;Max_cycle;Signal;HPM_P1;HPM_P2
2023/07/29 00:01:00;;;;;;;4.43;3.38;;;;;;;19.38;88.04;100065.03;4110562;28;20142;-76
2023/07/29 00:03:03;;;;;;;5.68;3.40;;;;;;;19.32;88.52;100075.75;4122567;28;20038;-77
2023/07/29 00:05:06;;;;;;;3.78;3.08;;;;;;;19.26;88.76;100082.06;4128395;28;20034;-76
2023/07/29 00:07:09;;;;;;;8.77;3.53;;;;;;;19.27;89.25;100083.75;4142531;28;20491;-77
2023/07/29 00:09:12;;;;;;;4.18;2.90;;;;;;;19.29;89.26;100081.97;4128958;28;20048;-77
2023/07/29 00:11:15;;;;;;;3.58;2.38;;;;;;;19.35;88.90;100079.16;4128695;28;20049;-77
2023/07/29 00:13:17;;;;;;;4.85;3.17;;;;;;;19.35;88.73;100076.53;4127543;28;20036;-77
2023/07/29 00:15:24;;;;;;;4.43;2.80;;;;;;;19.40;88.58;100064.97;4127675;28;20035;-77
2023/07/29 00:17:27;;;;;;;6.82;2.80;;;;;;;19.35;88.83;100060.69;4129039;28;20046;-77
2023/07/29 00:19:30;;;;;;;5.32;3.13;;;;;;;19.40;88.65;100067.63;4128759;28;20072;-77
2023/07/29 00:21:33;;;;;;;4.47;2.88;;;;;;;19.45;88.47;100053.41;4127629;28;20042;-77
2023/07/29 00:23:36;;;;;;;3.03;2.55;;;;;;;19.44;88.23;100054.31;4110791;28;20042;-77
2023/07/29 00:25:38;;;;;;;6.50;3.50;;;;;;;19.42;88.13;100048.22;4094622;28;20512;-77
2023/07/29 00:27:41;;;;;;;3.42;2.70;;;;;;;19.44;88.06;100040.28;4126501;28;20044;-77
2023/07/29 00:29:44;;;;;;;5.63;3.25;;;;;;;19.38;88.12;100043.06;4111091;28;20539;-77
2023/07/29 00:31:51;;;;;;;3.97;3.22;;;;;;;19.40;88.54;100041.25;4129725;28;20041;-76
2023/07/29 00:33:56;;;;;;;6.15;2.85;;;;;;;19.36;88.61;100044.00;4130794;28;20037;-75
2023/07/29 00:36:01;;;;;;;8.25;3.40;;;;;;;19.37;88.51;100042.22;4113730;28;20499;-74
2023/07/29 00:38:04;;;;;;;3.80;2.65;;;;;;;19.34;89.02;100040.50;4109543;28;20050;-75
2023/07/29 00:40:15;;;;;;;4.23;2.90;;;;;;;19.41;88.36;100037.72;4094108;28;20043;-75
2023/07/29 00:42:18;;;;;;;7.35;3.00;;;;;;;19.35;88.51;100034.34;4143955;28;20386;-75
2023/07/29 00:44:21;;;;;;;8.30;3.55;;;;;;;19.46;87.39;100025.25;4127428;28;20137;-75
2023/07/29 00:46:25;;;;;;;5.80;2.83;;;;;;;19.35;87.56;100017.69;4110196;28;20043;-75
2023/07/29 00:48:30;;;;;;;3.22;2.50;;;;;;;19.28;88.14;100016.97;4111340;28;20030;-75
2023/07/29 00:50:33;;;;;;;;;;;;;;;19.19;88.43;100018.09;4111751;28;20046;-74
2023/07/29 00:52:36;;;;;;;4.70;2.38;;;;;;;19.21;88.91;100022.47;4111649;28;19922;-73
2023/07/29 00:54:39;;;;;;;3.22;2.20;;;;;;;19.24;88.76;100025.03;4141085;28;20048;-73
2023/07/29 00:56:41;;;;;;;3.42;2.65;;;;;;;19.24;88.63;100031.16;4127404;28;20097;-75
2023/07/29 00:58:44;;;;;;;5.88;2.85;;;;;;;19.24;88.58;100025.88;4129096;28;20125;-74
2023/07/29 01:00:47;;;;;;;6.20;2.65;;;;;;;19.31;87.86;100021.31;4111136;28;20590;-75
2023/07/29 01:02:52;;;;;;;4.23;2.33;;;;;;;19.24;88.34;100031.16;4111101;28;20062;-74
2023/07/29 01:04:57;;;;;;;3.47;2.47;;;;;;;19.23;88.45;100034.72;4113399;28;20126;-75
2023/07/29 01:07:10;;;;;;;5.57;2.55;;;;;;;19.26;88.54;100033.72;4123033;28;20092;-76
2023/07/29 01:09:20;;;;;;;2.65;1.80;;;;;;;19.26;88.34;100031.97;4110809;28;21602;-75
2023/07/29 01:11:36;;;;;;;5.82;2.10;;;;;;;19.26;88.28;100020.56;4127263;28;20057;-74
2023/07/29 01:13:49;;;;;;;8.00;2.80;;;;;;;19.31;88.21;100016.03;4111343;28;20043;-75
2023/07/29 01:15:56;;;;;;;5.30;2.53;;;;;;;19.29;88.13;100018.72;4129190;28;20141;-75
2023/07/29 01:18:05;;;;;;;5.72;2.13;;;;;;;19.27;87.89;100015.25;4126201;28;20034;-76
2023/07/29 01:20:12;;;;;;;3.92;2.25;;;;;;;19.31;87.68;100021.31;4124667;28;20034;-76
2023/07/29 01:22:17;;;;;;;4.78;2.00;;;;;;;19.28;87.81;100016.13;4138982;28;20255;-76
2023/07/29 01:24:23;;;;;;;4.70;2.50;;;;;;;19.26;87.78;100013.53;4144594;28;20065;-76
2023/07/29 01:26:28;;;;;;;4.32;2.90;;;;;;;19.31;87.14;100011.63;4110388;28;20042;-75
2023/07/29 01:28:32;;;;;;;4.70;1.80;;;;;;;19.19;87.53;100010.19;4111900;28;20389;-75
2023/07/29 01:30:41;;;;;;;6.10;2.50;;;;;;;19.19;87.74;100006.72;4113813;28;20051;-76
2023/07/29 01:32:51;;;;;;;4.15;2.40;;;;;;;19.17;87.96;100004.13;4140843;28;20034;-76
2023/07/29 01:35:00;;;;;;;6.57;2.75;;;;;;;19.11;88.10;99999.00;4129103;28;20419;-76
2023/07/29 01:37:07;;;;;;;4.38;2.20;;;;;;;19.11;88.21;99991.09;4123238;28;20054;-76
2023/07/29 01:39:11;;;;;;;4.70;2.00;;;;;;;19.17;87.97;99996.22;4114124;28;20303;-76
2023/07/29 01:41:18;;;;;;;5.88;2.53;;;;;;;19.28;86.88;100000.31;4126208;28;20570;-76
2023/07/29 01:43:23;;;;;;;4.97;2.70;;;;;;;19.18;86.89;100000.56;4116454;28;20047;-76
2023/07/29 01:45:28;;;;;;;6.18;2.03;;;;;;;19.06;87.15;100000.91;4128675;28;20049;-77
2023/07/29 01:47:31;;;;;;;5.63;2.90;;;;;;;19.00;87.76;100006.38;4129192;28;20035;-76
2023/07/29 01:49:34;;;;;;;7.43;2.25;;;;;;;18.96;88.61;100004.72;4129876;28;20073;-76
2023/07/29 01:51:37;;;;;;;5.68;2.35;;;;;;;19.06;87.54;100000.91;4128249;28;20064;-75
2023/07/29 01:53:40;;;;;;;4.78;1.83;;;;;;;18.99;87.91;99991.47;4108244;28;20126;-76
2023/07/29 01:55:44;;;;;;;5.10;2.67;;;;;;;18.96;87.90;99988.91;4103094;28;20038;-75
2023/07/29 01:57:48;;;;;;;3.38;1.80;;;;;;;18.90;88.37;99989.09;4142497;28;20042;-76
2023/07/29 01:59:52;;;;;;;3.67;2.40;;;;;;;18.94;88.35;99988.06;4113743;28;20039;-76
2023/07/29 02:01:55;;;;;;;3.75;1.85;;;;;;;18.95;88.21;99992.44;4113363;28;20038;-75
2023/07/29 02:03:57;;;;;;;5.35;2.15;;;;;;;18.97;87.94;99988.03;4141320;28;20133;-76
2023/07/29 02:06:01;;;;;;;6.60;2.33;;;;;;;18.93;88.25;99981.09;4129815;28;20129;-76
2023/07/29 02:08:04;;;;;;;2.75;1.60;;;;;;;19.04;87.38;99984.31;4097716;29;20055;-76
2023/07/29 02:10:08;;;;;;;4.38;1.90;;;;;;;18.98;88.17;99981.81;4144921;28;20038;-76
2023/07/29 02:12:11;;;;;;;4.63;2.15;;;;;;;19.04;87.79;99981.66;4120763;28;20129;-76
2023/07/29 02:14:15;;;;;;;4.13;1.88;;;;;;;18.98;87.48;99976.56;4129945;28;20030;-75
2023/07/29 02:16:17;;;;;;;3.65;2.20;;;;;;;18.94;87.56;99980.19;4111830;28;20053;-75
2023/07/29 02:18:20;;;;;;;3.55;2.17;;;;;;;19.02;86.93;99983.47;4112955;28;20165;-76
2023/07/29 02:20:23;;;;;;;4.75;2.10;;;;;;;18.93;87.14;99983.75;4129276;28;20129;-76
2023/07/29 02:22:27;;;;;;;2.58;1.83;;;;;;;18.85;88.05;99986.53;4112654;28;20508;-76
2023/07/29 02:24:29;;;;;;;4.15;1.70;;;;;;;18.84;88.21;99982.19;4128609;28;20093;-75
2023/07/29 02:26:32;;;;;;;3.22;1.95;;;;;;;18.83;88.17;99972.56;4144718;28;20040;-75
2023/07/29 02:28:35;;;;;;;4.05;1.80;;;;;;;18.86;87.54;99974.25;4113157;28;20042;-76
2023/07/29 02:30:43;;;;;;;4.47;2.03;;;;;;;18.88;87.60;99975.97;4112683;28;20500;-76
2023/07/29 02:32:45;;;;;;;2.30;1.67;;;;;;;18.87;87.55;99968.13;4112769;28;20050;-76
2023/07/29 02:34:51;;;;;;;3.58;1.60;;;;;;;18.82;87.81;99971.69;4128913;28;20078;-76
2023/07/29 02:36:54;;;;;;;2.58;1.92;;;;;;;18.88;87.71;99969.81;4113229;28;20430;-76
2023/07/29 02:38:57;;;;;;;4.10;2.08;;;;;;;18.80;87.93;99973.50;4112501;28;20042;-75
2023/07/29 02:41:00;;;;;;;2.90;2.20;;;;;;;18.82;88.34;99971.69;4127901;28;20043;-76
2023/07/29 02:43:02;;;;;;;5.22;1.90;;;;;;;18.82;88.36;99976.09;4113109;28;20085;-76
2023/07/29 02:45:09;;;;;;;5.85;1.90;;;;;;;18.81;88.10;99975.22;4129271;28;20050;-76
2023/07/29 02:47:13;;;;;;;2.63;1.45;;;;;;;18.83;87.73;99977.81;4095182;29;20043;-76
2023/07/29 02:49:16;;;;;;;2.25;1.55;;;;;;;18.80;88.13;99973.50;4126647;28;20177;-76
2023/07/29 02:51:19;;;;;;;4.97;2.00;;;;;;;18.77;88.07;99967.47;4095922;28;20162;-76
2023/07/29 02:53:22;;;;;;;2.83;1.70;;;;;;;18.83;87.98;99969.91;4123720;28;20042;-76
2023/07/29 02:55:25;;;;;;;3.55;1.58;;;;;;;18.86;87.47;99963.72;4126876;28;20042;-77
2023/07/29 02:57:28;;;;;;;3.92;1.83;;;;;;;18.82;87.60;99966.44;4111845;28;20038;-76
2023/07/29 02:59:31;;;;;;;5.72;1.85;;;;;;;18.85;87.76;99960.19;4112775;28;20038;-76
2023/07/29 03:01:34;;;;;;;5.57;1.90;;;;;;;18.78;87.90;99959.53;4127917;28;20062;-75
2023/07/29 03:03:38;;;;;;;2.97;2.00;;;;;;;18.82;87.49;99963.81;4110214;28;20043;-75
2023/07/29 03:05:41;;;;;;;3.60;1.77;;;;;;;18.77;87.93;99955.16;4143081;28;20408;-75
2023/07/29 03:07:45;;;;;;;2.35;1.60;;;;;;;18.83;88.17;99954.97;4112130;28;20031;-76
2023/07/29 03:09:48;;;;;;;4.00;1.88;;;;;;;18.87;87.76;99950.53;4144356;28;20053;-76
2023/07/29 03:11:52;;;;;;;7.60;2.10;;;;;;;18.99;86.89;99951.94;4112022;28;20401;-74
2023/07/29 03:13:55;;;;;;;;;;;;;;;18.82;87.01;99944.47;4111999;28;20042;-75
2023/07/29 03:16:05;;;;;;;6.45;2.28;;;;;;;18.79;87.29;99948.09;4112458;28;19922;-75
2023/07/29 03:18:08;;;;;;;4.65;2.00;;;;;;;18.77;87.93;99952.50;4109091;28;20101;-76
2023/07/29 03:20:12;;;;;;;6.13;2.13;;;;;;;18.82;88.02;99947.13;4112219;28;20157;-75
2023/07/29 03:22:15;;;;;;;8.35;2.38;;;;;;;18.80;88.07;99952.44;4111533;28;20038;-75
2023/07/29 03:24:17;;;;;;;5.15;2.33;;;;;;;18.83;87.99;99951.47;4111553;28;20043;-75
2023/07/29 03:26:20;;;;;;;3.30;2.00;;;;;;;18.96;87.21;99949.41;4127815;28;20034;-75
2023/07/29 03:28:23;;;;;;;5.22;1.95;;;;;;;18.91;87.34;99946.91;4095987;29;20110;-76
2023/07/29 03:30:26;;;;;;;4.20;2.22;;;;;;;18.95;87.02;99942.41;4111680;28;20106;-75
2023/07/29 03:32:29;;;;;;;3.92;2.50;;;;;;;18.87;87.21;99939.16;4112333;28;20043;-75
2023/07/29 03:34:32;;;;;;;3.47;2.60;;;;;;;18.97;86.75;99930.06;4144368;28;20053;-75
2023/07/29 03:36:36;;;;;;;5.88;2.25;;;;;;;18.86;86.80;99922.44;4110855;28;20125;-75
2023/07/29 03:38:40;;;;;;;3.58;2.00;;;;;;;18.76;87.94;99921.84;4111084;28;20125;-75
2023/07/29 03:40:44;;;;;;;4.93;2.67;;;;;;;18.86;87.50;99913.66;4111573;28;20034;-75
2023/07/29 03:42:47;;;;;;;2.53;1.92;;;;;;;18.86;87.42;99898.75;4144186;28;20042;-75
2023/07/29 03:44:50;;;;;;;4.22;2.75;;;;;;;18.76;87.93;99898.13;4094315;29;20043;-74
2023/07/29 03:46:53;;;;;;;7.78;2.63;;;;;;;18.71;88.61;99910.56;4109664;28;20130;-75
2023/07/29 03:48:55;;;;;;;5.20;2.83;;;;;;;18.75;88.52;99920.09;4111291;28;20062;-74
2023/07/29 03:50:57;;;;;;;7.10;2.33;;;;;;;18.80;88.14;99912.06;4126327;28;20507;-74
2023/07/29 03:53:02;;;;;;;4.78;2.72;;;;;;;18.87;87.41;99915.44;4094813;28;20749;-74
2023/07/29 03:55:05;;;;;;;4.93;2.80;;;;;;;18.85;87.54;99918.06;4128755;28;20034;-76
2023/07/29 03:57:08;;;;;;;4.05;2.28;;;;;;;18.80;87.71;99926.09;4111210;28;20046;-75
2023/07/29 03:59:11;;;;;;;4.22;2.53;;;;;;;18.78;87.84;99922.66;4128672;28;20045;-74
2023/07/29 04:01:14;;;;;;;5.03;2.63;;;;;;;18.77;88.30;99925.31;4126279;28;20039;-74
2023/07/29 04:03:17;;;;;;;4.93;2.40;;;;;;;18.83;88.11;99926.00;4110810;28;20069;-74
2023/07/29 04:05:21;;;;;;;3.42;2.30;;;;;;;18.82;88.04;99931.31;4105199;28;20068;-74
2023/07/29 04:07:24;;;;;;;4.28;2.50;;;;;;;18.81;88.30;99932.25;4126738;28;20397;-75
2023/07/29 04:09:28;;;;;;;3.78;2.63;;;;;;;18.86;87.89;99932.09;4126576;28;20077;-76
2023/07/29 04:11:30;;;;;;;4.65;2.65;;;;;;;18.86;88.01;99930.34;4128108;28;20089;-76
2023/07/29 04:13:33;;;;;;;5.63;2.20;;;;;;;18.86;88.08;99924.19;4111299;28;20116;-76
2023/07/29 04:15:36;;;;;;;5.82;2.60;;;;;;;18.86;88.32;99925.09;4143543;28;20574;-76
2023/07/29 04:17:39;;;;;;;3.67;2.40;;;;;;;18.87;88.36;99931.25;4110019;28;20053;-76
2023/07/29 04:19:42;;;;;;;6.50;2.40;;;;;;;18.91;88.37;99928.47;4095182;29;20044;-75
2023/07/29 04:21:46;;;;;;;5.55;2.38;;;;;;;18.96;87.92;99920.44;4142633;28;20038;-76
2023/07/29 04:23:49;;;;;;;4.03;2.30;;;;;;;18.92;88.18;99935.44;4127773;28;20130;-76
2023/07/29 04:25:54;;;;;;;5.40;2.30;;;;;;;18.98;87.89;99935.28;4126871;28;20062;-76
2023/07/29 04:27:57;;;;;;;5.72;3.17;;;;;;;18.96;88.33;99929.19;4110834;28;20081;-76
2023/07/29 04:30:00;;;;;;;11.37;2.97;;;;;;;18.99;88.04;99929.09;4143134;28;20037;-76
2023/07/29 04:32:02;;;;;;;4.60;2.58;;;;;;;18.96;88.26;99937.09;4110849;28;20122;-76
2023/07/29 04:34:05;;;;;;;5.53;2.40;;;;;;;18.94;88.45;99933.66;4110521;28;20031;-76
2023/07/29 04:36:08;;;;;;;3.53;2.30;;;;;;;18.95;88.54;99930.13;4110991;28;20034;-76
2023/07/29 04:38:18;;;;;;;3.88;2.65;;;;;;;19.02;88.33;99930.78;4128392;28;20038;-74
2023/07/29 04:40:22;;;;;;;3.33;2.35;;;;;;;19.04;87.92;99938.63;4128475;28;20522;-74
2023/07/29 04:42:27;;;;;;;2.42;2.05;;;;;;;19.02;88.39;99942.16;4126393;28;20038;-75
2023/07/29 04:44:29;;;;;;;7.45;2.60;;;;;;;19.08;87.59;99946.41;4126766;28;20125;-76
2023/07/29 04:46:32;;;;;;;3.65;2.47;;;;;;;19.01;88.06;99944.84;4109671;28;20089;-76
2023/07/29 04:48:36;;;;;;;5.63;2.70;;;;;;;19.02;87.87;99941.31;4128371;28;20113;-76
2023/07/29 04:50:39;;;;;;;4.68;2.88;;;;;;;19.01;88.30;99939.56;4126716;28;20406;-76
2023/07/29 04:52:42;;;;;;;9.77;3.53;;;;;;;19.04;87.81;99930.72;4107287;28;20130;-76
2023/07/29 04:54:45;;;;;;;9.15;2.50;;;;;;;18.99;88.35;99934.34;4111053;28;20043;-76
2023/07/29 04:56:48;;;;;;;8.32;2.83;;;;;;;18.98;88.16;99951.09;4125843;28;20042;-75
2023/07/29 04:58:54;;;;;;;;;;;;;;;18.82;88.58;99958.53;4128401;28;20042;-76
2023/07/29 05:00:57;;;;;;;5.18;3.17;;;;;;;18.82;89.31;99955.91;4125768;28;20138;-75
2023/07/29 05:03:00;;;;;;;5.65;3.22;;;;;;;18.77;89.72;99957.78;4126387;28;20034;-75
2023/07/29 05:05:04;;;;;;;6.10;3.20;;;;;;;18.93;89.14;99952.97;4127060;28;20034;-75
2023/07/29 05:07:07;;;;;;;6.45;3.75;;;;;;;18.93;89.12;99941.59;4124135;28;20046;-75
2023/07/29 05:09:14;;;;;;;11.32;3.85;;;;;;;18.95;89.08;99937.13;4126746;28;20479;-76
2023/07/29 05:11:17;;;;;;;7.15;3.65;;;;;;;18.94;88.82;99930.13;4095760;29;20043;-76
2023/07/29 05:13:20;;;;;;;5.30;3.40;;;;;;;18.86;89.58;99934.75;4127789;28;20146;-76
2023/07/29 05:15:24;;;;;;;5.70;2.70;;;;;;;18.91;89.51;99938.13;4111186;28;20558;-76
2023/07/29 05:17:27;;;;;;;5.10;2.40;;;;;;;18.83;90.27;99938.31;4111454;28;20046;-75
2023/07/29 05:19:30;;;;;;;5.35;2.80;;;;;;;18.90;90.50;99934.63;4128053;28;20062;-76
2023/07/29 05:21:34;;;;;;;4.47;2.72;;;;;;;18.97;89.79;99943.25;4113233;28;20039;-76
2023/07/29 05:23:36;;;;;;;4.70;2.83;;;;;;;18.99;89.61;99941.41;4129155;28;20071;-76
2023/07/29 05:25:39;;;;;;;3.75;2.55;;;;;;;18.98;90.69;99944.94;4114123;28;20049;-74
2023/07/29 05:27:42;;;;;;;4.65;2.63;;;;;;;19.05;90.82;99957.03;4110061;28;20089;-74
2023/07/29 05:29:45;;;;;;;3.88;2.10;;;;;;;19.04;90.48;99949.16;4129687;28;20037;-75
2023/07/29 05:31:49;;;;;;;4.22;2.30;;;;;;;19.11;90.78;99954.22;4128267;28;20046;-75
2023/07/29 05:33:51;;;;;;;5.32;2.92;;;;;;;19.16;90.22;99948.84;4113137;28;20049;-77
2023/07/29 05:35:55;;;;;;;6.20;2.72;;;;;;;19.13;90.36;99952.41;4112887;28;20035;-76
2023/07/29 05:37:58;;;;;;;8.73;1.77;;;;;;;19.17;90.37;99951.41;4111765;28;20061;-76
2023/07/29 05:40:01;;;;;;;3.50;2.20;;;;;;;19.19;90.04;99964.56;4130188;28;20621;-76
2023/07/29 05:42:04;;;;;;;5.57;2.28;;;;;;;19.18;90.27;99962.81;4143272;28;20582;-75
2023/07/29 05:44:07;;;;;;;2.60;1.75;;;;;;;19.23;90.37;99965.31;4099633;28;20051;-75
2023/07/29 05:46:12;;;;;;;4.35;2.10;;;;;;;19.30;90.08;99956.31;4128845;28;20046;-76
2023/07/29 05:48:16;;;;;;;3.77;2.03;;;;;;;19.22;90.58;99963.59;4112079;28;20117;-75
2023/07/29 05:50:20;;;;;;;6.63;2.10;;;;;;;19.27;90.59;99951.13;4111056;28;20286;-76
2023/07/29 05:52:24;;;;;;;3.53;1.80;;;;;;;19.25;90.67;99964.34;4129015;28;20125;-75
2023/07/29 05:54:27;;;;;;;3.95;2.00;;;;;;;19.26;91.30;99962.56;4128424;28;20058;-75
2023/07/29 05:56:31;;;;;;;2.65;1.88;;;;;;;19.27;91.14;99966.94;4143734;28;20069;-75
2023/07/29 05:58:34;;;;;;;;;;;;;;;19.29;91.24;99962.47;4097615;29;20118;-76
2023/07/29 06:00:36;;;;;;;4.65;2.10;;;;;;;19.36;90.93;99959.63;4126109;28;20016;-76
2023/07/29 06:02:39;;;;;;;3.95;2.33;;;;;;;19.44;90.33;99954.13;4127899;28;20050;-75
2023/07/29 06:04:43;;;;;;;4.07;2.40;;;;;;;19.37;90.78;99949.94;4144508;28;20060;-76
2023/07/29 06:06:46;;;;;;;2.80;1.80;;;;;;;19.36;91.24;99964.91;4113280;28;20042;-76
2023/07/29 06:08:49;;;;;;;2.88;1.65;;;;;;;19.45;90.96;99955.88;4126527;28;20038;-76
2023/07/29 06:10:52;;;;;;;4.60;2.10;;;;;;;19.51;90.90;99960.94;4129444;28;20066;-76
2023/07/29 06:12:55;;;;;;;3.13;2.00;;;;;;;19.51;91.01;99953.03;4144118;28;20049;-76
2023/07/29 06:14:57;;;;;;;4.18;1.85;;;;;;;19.58;91.07;99961.63;4125515;28;20050;-77
2023/07/29 06:17:00;;;;;;;4.07;1.90;;;;;;;19.63;90.59;99953.56;4128798;28;20046;-76
2023/07/29 06:19:03;;;;;;;2.28;1.70;;;;;;;19.67;90.12;99949.94;4128340;28;20122;-77
2023/07/29 06:21:11;;;;;;;3.75;2.10;;;;;;;19.66;90.56;99950.81;4114569;28;20130;-75
2023/07/29 06:23:14;;;;;;;2.63;1.77;;;;;;;19.67;90.45;99949.94;4113611;28;20122;-77
2023/07/29 06:25:17;;;;;;;6.28;2.20;;;;;;;19.73;89.81;99947.09;4144449;28;20408;-77
2023/07/29 06:27:20;;;;;;;4.25;1.90;;;;;;;19.77;89.51;99935.53;4129669;28;20121;-76
2023/07/29 06:29:24;;;;;;;3.08;1.98;;;;;;;19.77;89.66;99948.72;4129551;28;20532;-76
2023/07/29 06:31:27;;;;;;;2.58;2.13;;;;;;;19.75;90.06;99958.44;4130461;28;20069;-74
2023/07/29 06:33:30;;;;;;;4.93;2.25;;;;;;;19.78;89.96;99958.38;4119247;28;20035;-74
2023/07/29 06:35:33;;;;;;;3.83;2.13;;;;;;;19.76;90.45;99964.59;4126419;28;20484;-74
2023/07/29 06:37:36;;;;;;;4.18;2.50;;;;;;;19.80;90.67;99960.94;4104351;28;20065;-74
2023/07/29 06:39:39;;;;;;;3.97;2.40;;;;;;;19.78;90.63;99961.00;4120612;28;20080;-74
2023/07/29 06:41:42;;;;;;;5.25;2.90;;;;;;;19.80;90.44;99964.47;4127196;28;20046;-74
2023/07/29 06:43:45;;;;;;;6.03;2.42;;;;;;;19.88;90.29;99966.84;4129558;28;20114;-74
2023/07/29 06:45:48;;;;;;;6.32;3.53;;;;;;;20.07;89.84;99963.63;4117479;28;20687;-75
2023/07/29 06:47:51;;;;;;;7.35;3.30;;;;;;;20.09;89.07;99957.38;4129539;28;20095;-74
2023/07/29 06:49:55;;;;;;;2.95;2.05;;;;;;;20.14;89.12;99966.00;4129930;28;20408;-74
2023/07/29 06:51:57;;;;;;;5.15;2.63;;;;;;;20.21;88.95;99956.13;4126433;28;20034;-73
2023/07/29 06:54:02;;;;;;;7.00;2.65;;;;;;;20.34;88.36;99967.97;4126992;28;20479;-74
2023/07/29 06:56:05;;;;;;;5.75;2.63;;;;;;;20.43;88.03;99966.81;4127567;28;20042;-74
2023/07/29 06:58:08;;;;;;;4.53;2.58;;;;;;;20.47;87.83;99973.72;4112931;28;20035;-74
2023/07/29 07:00:11;;;;;;;3.05;2.17;;;;;;;20.47;88.27;99972.81;4126956;28;20117;-74
2023/07/29 07:02:15;;;;;;;4.32;2.33;;;;;;;20.48;88.46;99970.13;4129728;28;20066;-74
2023/07/29 07:04:17;;;;;;;5.25;1.98;;;;;;;20.55;88.30;99976.94;4130259;28;20038;-74
2023/07/29 07:06:21;;;;;;;6.35;3.05;;;;;;;20.63;88.16;99979.28;4129254;28;20125;-73
2023/07/29 07:08:24;;;;;;;2.65;2.03;;;;;;;20.68;88.15;99976.53;4129807;28;20034;-74
2023/07/29 07:10:28;;;;;;;5.75;2.70;;;;;;;20.86;87.60;99982.94;4127178;28;20518;-74
2023/07/29 07:12:31;;;;;;;4.68;3.13;;;;;;;20.87;87.47;99982.03;4112043;28;20063;-76
2023/07/29 07:14:34;;;;;;;3.53;2.67;;;;;;;20.97;87.26;99983.41;4129668;28;20049;-78
2023/07/29 07:16:39;;;;;;;3.20;2.35;;;;;;;21.01;87.02;99977.09;4127927;28;20407;-68
2023/07/29 07:18:42;;;;;;;4.60;2.08;;;;;;;21.08;86.11;99970.69;4144723;28;20045;-67
2023/07/29 07:20:48;;;;;;;4.43;2.92;;;;;;;21.03;86.15;99975.25;4129884;28;20039;-74
2023/07/29 07:22:51;;;;;;;7.25;2.85;;;;;;;20.99;86.64;99972.78;4128668;28;20493;-69
2023/07/29 07:24:54;;;;;;;4.28;2.75;;;;;;;20.92;86.72;99977.44;4128592;28;20058;-70
2023/07/29 07:26:58;;;;;;;5.57;2.40;;;;;;;20.87;86.69;99982.88;4125761;28;20073;-66
2023/07/29 07:29:01;;;;;;;4.95;2.45;;;;;;;20.88;86.64;99971.41;4114250;28;20141;-66
2023/07/29 07:31:04;;;;;;;3.58;2.13;;;;;;;20.83;87.13;99981.25;4109795;28;20089;-66
2023/07/29 07:33:07;;;;;;;6.15;2.28;;;;;;;20.85;87.11;99991.78;4112251;28;20114;-68
2023/07/29 07:35:10;;;;;;;3.10;2.38;;;;;;;20.85;87.14;99994.41;4129078;28;20046;-74
2023/07/29 07:37:13;;;;;;;3.45;2.30;;;;;;;20.83;87.34;99986.53;4128150;28;20042;-73
2023/07/29 07:39:16;;;;;;;4.50;1.98;;;;;;;20.86;87.42;99994.34;4127632;28;20133;-72
2023/07/29 07:41:19;;;;;;;3.55;2.30;;;;;;;20.83;87.24;99996.25;4127998;28;20054;-73
2023/07/29 07:43:23;;;;;;;4.72;2.40;;;;;;;20.87;87.20;99998.72;4110086;28;20051;-73
2023/07/29 07:45:26;;;;;;;2.80;1.98;;;;;;;20.98;86.92;99990.41;4128314;28;20065;-73
2023/07/29 07:47:29;;;;;;;3.75;2.03;;;;;;;20.98;86.74;99986.91;4121367;28;20135;-72
2023/07/29 07:49:33;;;;;;;3.75;2.40;;;;;;;21.05;86.70;99993.69;4107787;28;20081;-73
2023/07/29 07:51:35;;;;;;;4.28;2.20;;;;;;;21.08;86.31;99990.94;4123859;28;20042;-73
2023/07/29 07:53:38;;;;;;;5.78;2.30;;;;;;;21.21;85.88;99979.00;4122242;28;20074;-74
2023/07/29 07:55:40;;;;;;;3.75;2.20;;;;;;;21.36;85.60;99963.47;4150199;23;20057;-68
2023/07/29 07:57:43;;;;;;;1.75;1.60;;;;;;;21.40;85.71;99960.63;4135587;28;20069;-68
2023/07/29 07:59:47;;;;;;;5.50;2.03;;;;;;;21.51;85.79;99962.91;4129202;28;20128;-69
2023/07/29 08:01:50;;;;;;;3.47;1.67;;;;;;;21.67;84.74;99973.75;4123346;28;20058;-66
2023/07/29 08:03:52;;;;;;;2.72;2.00;;;;;;;21.73;84.45;99977.94;4099814;28;20054;-67
2023/07/29 08:05:54;;;;;;;3.88;2.10;;;;;;;21.74;84.27;99990.22;4122746;28;20439;-66
2023/07/29 08:07:58;;;;;;;8.18;4.25;;;;;;;21.82;83.89;99972.28;4100020;28;20496;-67
2023/07/29 08:10:00;;;;;;;7.47;3.92;;;;;;;21.67;83.46;99980.81;4114998;28;20074;-66
2023/07/29 08:12:03;;;;;;;8.15;5.22;;;;;;;21.56;83.90;99992.69;4084811;29;20046;-67
2023/07/29 08:14:06;;;;;;;14.32;12.13;;;;;;;21.48;84.26;99988.56;4121277;28;20034;-66
2023/07/29 08:16:10;;;;;;;5.07;3.30;;;;;;;21.41;84.63;99998.53;4113128;28;20725;-66
2023/07/29 08:18:13;;;;;;;4.25;2.97;;;;;;;21.39;85.03;99995.06;4115825;28;20047;-69
2023/07/29 08:23:15;;;;;;;3.58;2.20;;;;;;;21.28;85.90;100004.28;4112900;28;20046;-70
2023/07/29 08:25:18;;;;;;;4.47;3.20;;;;;;;21.28;86.05;100000.78;4111859;28;20050;-70
2023/07/29 08:27:20;;;;;;;6.63;2.45;;;;;;;21.27;85.96;99992.00;4117762;28;20038;-70
2023/07/29 08:29:23;;;;;;;4.20;2.42;;;;;;;21.33;86.25;99990.03;4118618;28;20129;-70
2023/07/29 08:31:28;;;;;;;7.00;2.88;;;;;;;21.39;86.33;100003.88;4114782;28;20204;-70
2023/07/29 08:33:31;;;;;;;7.07;2.80;;;;;;;21.42;86.07;100001.13;4120149;28;20070;-70
2023/07/29 08:35:34;;;;;;;6.90;3.17;;;;;;;21.47;85.90;99995.66;4103292;28;20035;-70
2023/07/29 08:37:37;;;;;;;5.10;3.00;;;;;;;21.39;85.95;99998.59;4120487;28;20500;-70
2023/07/29 08:39:39;;;;;;;4.82;2.72;;;;;;;21.49;86.03;99991.16;4106951;28;20063;-70
2023/07/29 08:41:50;;;;;;;7.13;2.47;;;;;;;21.68;85.56;99987.84;4119210;28;20492;-70
2023/07/29 08:43:59;;;;;;;7.45;3.55;;;;;;;21.75;85.30;99992.81;4105422;28;20089;-70
2023/07/29 08:46:02;;;;;;;4.60;2.47;;;;;;;21.79;84.51;99993.56;4110119;28;20038;-70
2023/07/29 08:48:08;;;;;;;4.07;2.20;;;;;;;21.80;83.46;99997.94;4102856;28;20042;-70
2023/07/29 08:50:12;;;;;;;2.25;1.92;;;;;;;21.95;82.85;100005.25;4117610;28;20034;-70
2023/07/29 08:52:17;;;;;;;4.45;2.42;;;;;;;22.25;82.64;100009.34;4107714;28;20047;-70
2023/07/29 08:54:20;;;;;;;10.43;3.92;;;;;;;22.41;82.58;100028.16;4121024;28;20030;-70
2023/07/29 08:56:24;;;;;;;7.35;4.13;;;;;;;22.54;82.09;100032.00;4120188;28;20063;-71
2023/07/29 08:58:28;;;;;;;5.65;2.20;;;;;;;22.48;81.51;100033.13;4117836;28;20038;-71
2023/07/29 09:00:32;;;;;;;4.00;2.33;;;;;;;22.63;81.22;100026.34;4101534;28;20082;-70
2023/07/29 09:02:35;;;;;;;6.95;2.20;;;;;;;22.59;81.39;100032.69;4120790;28;20497;-70
2023/07/29 09:04:39;;;;;;;3.40;1.88;;;;;;;22.61;80.98;100024.66;4116521;28;20051;-70
2023/07/29 09:06:43;;;;;;;3.05;1.80;;;;;;;22.73;81.19;100031.22;4122416;28;20121;-70
2023/07/29 09:08:47;;;;;;;;;;;;;;;22.75;81.24;100034.66;4122895;28;20515;-70
2023/07/29 09:10:50;;;;;;;4.53;2.30;;;;;;;22.59;81.18;100029.16;4117636;28;19969;-70
2023/07/29 09:12:53;;;;;;;2.08;1.80;;;;;;;22.52;80.94;100025.91;4102172;28;20074;-70
2023/07/29 09:14:56;;;;;;;3.00;1.90;;;;;;;22.58;80.65;100025.66;4100615;28;20041;-70
2023/07/29 09:17:00;;;;;;;4.57;2.28;;;;;;;22.71;80.36;100025.16;4121265;28;20125;-70
2023/07/29 09:19:04;;;;;;;4.82;1.63;;;;;;;22.83;80.27;100021.94;4115299;28;20404;-70
2023/07/29 09:21:08;;;;;;;3.13;2.03;;;;;;;23.10;80.24;100011.03;4118236;28;20190;-70
2023/07/29 09:23:11;;;;;;;2.60;1.92;;;;;;;23.14;79.73;100015.31;4110296;28;20074;-70
2023/07/29 09:25:16;;;;;;;2.50;1.90;;;;;;;23.02;80.18;100014.88;4116210;28;20038;-70
2023/07/29 09:27:31;;;;;;;2.58;1.70;;;;;;;23.05;80.01;100007.75;4110279;28;20573;-70
2023/07/29 09:29:37;;;;;;;2.33;1.83;;;;;;;23.35;77.92;99994.91;4118823;28;20038;-71
2023/07/29 09:31:39;;;;;;;4.45;1.80;;;;;;;23.55;76.98;99993.09;4116354;28;20125;-70
2023/07/29 09:33:43;;;;;;;2.67;1.73;;;;;;;23.79;75.79;99989.28;4111783;28;20042;-69
2023/07/29 09:35:47;;;;;;;3.00;1.75;;;;;;;24.01;75.62;99982.97;4119686;28;20105;-70
2023/07/29 09:37:52;;;;;;;3.13;1.70;;;;;;;24.11;74.04;99989.53;4099471;28;20050;-69
2023/07/29 09:39:55;;;;;;;4.20;2.03;;;;;;;24.03;73.02;99981.97;4086153;29;20086;-68
2023/07/29 09:41:58;;;;;;;4.30;1.60;;;;;;;23.92;73.48;99989.59;4118224;28;20472;-68
2023/07/29 09:44:03;;;;;;;5.35;1.52;;;;;;;23.85;73.61;99996.09;4119512;28;20450;-70